sensor_id;sensor_type;location;lat;lon;timestamp;pressure;altitude;pressure_sealevel;temperature;humidity
11692;BME280;33659;42.672;23.354;2023-07-09T00:01:44;69185.34;;;20.52;53.69
11692;BME280;33659;42.672;23.354;2023-07-09T00:04:11;69190.25;;;20.57;53.54
11692;BME280;33659;42.672;23.354;2023-07-09T00:06:38;69189.25;;;20.59;53.82
11692;BME280;33659;42.672;23.354;2023-07-09T00:09:08;69192.97;;;20.60;53.58
11692;BME280;33659;42.672;23.354;2023-07-09T00:11:38;69195.19;;;20.62;53.57
11692;BME280;33659;42.672;23.354;2023-07-09T00:14:05;69196.81;;;20.63;53.71
11692;BME280;33659;42.672;23.354;2023-07-09T00:16:33;69196.81;;;20.63;53.28
11692;BME280;33659;42.672;23.354;2023-07-09T00:19:00;69131.69;;;20.69;53.22
11692;BME280;33659;42.672;23.354;2023-07-09T00:21:27;69203.78;;;20.67;52.95
11692;BME280;33659;42.672;23.354;2023-07-09T00:23:58;69208.81;;;20.74;52.74
11692;BME280;33659;42.672;23.354;2023-07-09T00:26:31;69140.94;;;20.77;52.35
11692;BME280;33659;42.672;23.354;2023-07-09T00:28:58;69208.88;;;20.77;52.53
11692;BME280;33659;42.672;23.354;2023-07-09T00:31:26;69210.44;;;20.76;52.72
11692;BME280;33659;42.672;23.354;2023-07-09T00:33:54;69213.69;;;20.79;52.34
11692;BME280;33659;42.672;23.354;2023-07-09T00:36:26;69215.44;;;20.83;52.15
11692;BME280;33659;42.672;23.354;2023-07-09T00:38:53;69223.53;;;20.88;51.98
11692;BME280;33659;42.672;23.354;2023-07-09T00:41:22;69150.19;;;20.86;51.80
11692;BME280;33659;42.672;23.354;2023-07-09T00:43:51;69219.69;;;20.85;52.15
11692;BME280;33659;42.672;23.354;2023-07-09T00:49:27;69151.81;;;20.88;51.79
11692;BME280;33659;42.672;23.354;2023-07-09T00:51:56;69228.97;;;20.93;51.76
11692;BME280;33659;42.672;23.354;2023-07-09T00:54:29;69211.53;;;20.77;51.72
11692;BME280;33659;42.672;23.354;2023-07-09T00:59:31;69225.69;;;20.90;51.87
11692;BME280;33659;42.672;23.354;2023-07-09T01:04:28;69136.47;;;20.86;51.81
11692;BME280;33659;42.672;23.354;2023-07-09T01:06:56;69151.19;;;20.85;51.66
11692;BME280;33659;42.672;23.354;2023-07-09T01:09:24;69221.31;;;20.86;51.99
11692;BME280;33659;42.672;23.354;2023-07-09T01:11:52;69222.44;;;20.87;52.02
11692;BME280;33659;42.672;23.354;2023-07-09T01:14:22;69220.69;;;20.83;51.97
11692;BME280;33659;42.672;23.354;2023-07-09T01:17:06;69231.03;;;20.93;51.56
11692;BME280;33659;42.672;23.354;2023-07-09T01:19:39;69244.06;;;21.02;51.08
11692;BME280;33659;42.672;23.354;2023-07-09T01:22:11;69147.38;;;20.81;51.54
11692;BME280;33659;42.672;23.354;2023-07-09T01:24:56;69233.31;;;20.97;51.03
11692;BME280;33659;42.672;23.354;2023-07-09T01:27:29;69234.41;;;20.98;51.33
11692;BME280;33659;42.672;23.354;2023-07-09T01:29:57;69154.53;;;20.90;51.39
11692;BME280;33659;42.672;23.354;2023-07-09T01:32:25;69147.47;;;20.83;51.23
11692;BME280;33659;42.672;23.354;2023-07-09T01:34:54;69204.97;;;20.71;51.70
11692;BME280;33659;42.672;23.354;2023-07-09T01:37:25;69212.59;;;20.78;51.86
11692;BME280;33659;42.672;23.354;2023-07-09T01:39:52;69201.16;;;20.67;51.80
11692;BME280;33659;42.672;23.354;2023-07-09T01:42:22;69116.50;;;20.57;52.06
11692;BME280;33659;42.672;23.354;2023-07-09T01:44:49;69104.00;;;20.45;52.10
11692;BME280;33659;42.672;23.354;2023-07-09T01:47:17;69170.69;;;20.41;52.44
11692;BME280;33659;42.672;23.354;2023-07-09T01:49:44;69186.91;;;20.51;52.51
11692;BME280;33659;42.672;23.354;2023-07-09T01:52:14;69098.53;;;20.40;52.45
11692;BME280;33659;42.672;23.354;2023-07-09T01:54:43;69161.81;;;20.28;52.87
11692;BME280;33659;42.672;23.354;2023-07-09T01:57:16;69164.63;;;20.33;52.76
11692;BME280;33659;42.672;23.354;2023-07-09T01:59:45;69164.63;;;20.33;52.79
11692;BME280;33659;42.672;23.354;2023-07-09T02:02:12;69092.38;;;20.29;53.31
11692;BME280;33659;42.672;23.354;2023-07-09T02:04:48;69170.06;;;20.38;53.33
11692;BME280;33659;42.672;23.354;2023-07-09T02:07:15;69082.13;;;20.22;53.33
11692;BME280;33659;42.672;23.354;2023-07-09T02:09:44;69156.00;;;20.27;53.34
11692;BME280;33659;42.672;23.354;2023-07-09T02:12:11;69090.81;;;20.31;53.09
11692;BME280;33659;42.672;23.354;2023-07-09T02:14:40;69163.00;;;20.32;53.38
11692;BME280;33659;42.672;23.354;2023-07-09T02:17:08;69160.28;;;20.29;53.39
11692;BME280;33659;42.672;23.354;2023-07-09T02:19:35;69092.44;;;20.32;53.30
11692;BME280;33659;42.672;23.354;2023-07-09T02:22:03;69095.72;;;20.35;53.40
11692;BME280;33659;42.672;23.354;2023-07-09T02:24:30;69169.00;;;20.37;53.33
11692;BME280;33659;42.672;23.354;2023-07-09T02:27:00;69094.06;;;20.34;53.37
11692;BME280;33659;42.672;23.354;2023-07-09T02:29:28;69167.25;;;20.33;53.37
11692;BME280;33659;42.672;23.354;2023-07-09T02:31:57;69177.72;;;20.45;53.67
11692;BME280;33659;42.672;23.354;2023-07-09T02:34:24;69188.63;;;20.55;53.67
11692;BME280;33659;42.672;23.354;2023-07-09T02:36:51;69123.59;;;20.64;53.42
11692;BME280;33659;42.672;23.354;2023-07-09T02:39:19;69198.97;;;20.65;54.17
11692;BME280;33659;42.672;23.354;2023-07-09T02:41:46;69202.81;;;20.69;55.88
11692;BME280;33659;42.672;23.354;2023-07-09T02:44:15;69202.81;;;20.69;56.95
11692;BME280;33659;42.672;23.354;2023-07-09T02:46:42;69185.81;;;20.50;57.54
11692;BME280;33659;42.672;23.354;2023-07-09T02:49:10;69197.34;;;20.64;57.67
11692;BME280;33659;42.672;23.354;2023-07-09T02:51:38;69195.19;;;20.62;57.81
11692;BME280;33659;42.672;23.354;2023-07-09T02:54:05;69190.19;;;20.54;57.95
11692;BME280;33659;42.672;23.354;2023-07-09T02:56:32;69178.81;;;20.46;58.37
11692;BME280;33659;42.672;23.354;2023-07-09T02:58:59;69159.16;;;20.28;59.17
11692;BME280;33659;42.672;23.354;2023-07-09T03:01:28;69167.38;;;20.36;59.12
11692;BME280;33659;42.672;23.354;2023-07-09T03:03:55;69168.44;;;20.37;59.35
11692;BME280;33659;42.672;23.354;2023-07-09T03:06:23;69177.19;;;20.45;58.94
11692;BME280;33659;42.672;23.354;2023-07-09T03:08:51;69173.34;;;20.41;59.61
11692;BME280;33659;42.672;23.354;2023-07-09T03:11:19;69166.25;;;20.35;59.70
11692;BME280;33659;42.672;23.354;2023-07-09T03:13:46;69178.16;;;20.43;59.39
11692;BME280;33659;42.672;23.354;2023-07-09T03:16:14;69179.91;;;20.47;59.50
11692;BME280;33659;42.672;23.354;2023-07-09T03:18:42;69107.72;;;20.46;59.60
11692;BME280;33659;42.672;23.354;2023-07-09T03:21:09;69109.81;;;20.46;59.52
11692;BME280;33659;42.672;23.354;2023-07-09T03:23:36;69173.91;;;20.42;60.07
11692;BME280;33659;42.672;23.354;2023-07-09T03:26:03;69173.91;;;20.42;60.11
11692;BME280;33659;42.672;23.354;2023-07-09T03:28:31;69101.16;;;20.40;60.31
11692;BME280;33659;42.672;23.354;2023-07-09T03:30:58;69179.81;;;20.45;60.25
11692;BME280;33659;42.672;23.354;2023-07-09T03:33:25;69178.28;;;20.46;60.44
11692;BME280;33659;42.672;23.354;2023-07-09T03:35:54;69183.72;;;20.51;60.85
11692;BME280;33659;42.672;23.354;2023-07-09T03:38:21;69192.53;;;20.62;60.40
11692;BME280;33659;42.672;23.354;2023-07-09T03:40:50;69202.88;;;20.71;59.73
11692;BME280;33659;42.672;23.354;2023-07-09T03:43:17;69212.06;;;20.77;59.46
11692;BME280;33659;42.672;23.354;2023-07-09T03:45:44;69219.69;;;20.85;58.04
11692;BME280;33659;42.672;23.354;2023-07-09T03:48:12;69215.88;;;20.81;57.95
11692;BME280;33659;42.672;23.354;2023-07-09T03:50:38;69213.16;;;20.78;56.51
11692;BME280;33659;42.672;23.354;2023-07-09T03:53:06;69216.44;;;20.81;56.38
11692;BME280;33659;42.672;23.354;2023-07-09T03:55:33;69200.59;;;20.67;56.57
11692;BME280;33659;42.672;23.354;2023-07-09T03:58:00;69198.97;;;20.65;56.23
11692;BME280;33659;42.672;23.354;2023-07-09T04:00:28;69207.16;;;20.73;56.81
11692;BME280;33659;42.672;23.354;2023-07-09T04:02:55;69219.16;;;20.84;56.51
11692;BME280;33659;42.672;23.354;2023-07-09T04:05:23;69225.16;;;20.90;55.57
11692;BME280;33659;42.672;23.354;2023-07-09T04:07:50;69231.69;;;20.96;55.46
11692;BME280;33659;42.672;23.354;2023-07-09T04:10:19;69238.78;;;21.02;55.66
11692;BME280;33659;42.672;23.354;2023-07-09T04:12:46;69245.31;;;21.08;55.47
11692;BME280;33659;42.672;23.354;2023-07-09T04:15:13;69234.97;;;20.99;55.62
11692;BME280;33659;42.672;23.354;2023-07-09T04:17:40;69179.13;;;21.16;55.05
11692;BME280;33659;42.672;23.354;2023-07-09T04:20:08;69246.41;;;21.09;55.25
11692;BME280;33659;42.672;23.354;2023-07-09T04:22:36;69242.03;;;21.05;55.86
11692;BME280;33659;42.672;23.354;2023-07-09T04:25:04;69241.50;;;21.05;56.86
11692;BME280;33659;42.672;23.354;2023-07-09T04:27:33;69239.31;;;21.03;56.77
11692;BME280;33659;42.672;23.354;2023-07-09T04:30:00;69168.69;;;21.03;56.81
11692;BME280;33659;42.672;23.354;2023-07-09T04:32:27;69173.50;;;21.05;57.11
11692;BME280;33659;42.672;23.354;2023-07-09T04:34:54;69249.13;;;21.12;57.41
11692;BME280;33659;42.672;23.354;2023-07-09T04:37:21;69260.59;;;21.23;57.54
11692;BME280;33659;42.672;23.354;2023-07-09T04:39:47;69267.59;;;21.27;58.37
11692;BME280;33659;42.672;23.354;2023-07-09T04:42:16;69276.97;;;21.38;58.08
11692;BME280;33659;42.672;23.354;2023-07-09T04:44:45;69285.69;;;21.46;57.97
11692;BME280;33659;42.672;23.354;2023-07-09T04:47:11;69285.69;;;21.46;57.87
11692;BME280;33659;42.672;23.354;2023-07-09T04:49:38;69282.34;;;21.41;57.84
11692;BME280;33659;42.672;23.354;2023-07-09T04:52:06;69208.94;;;21.39;57.58
11692;BME280;33659;42.672;23.354;2023-07-09T04:54:37;69273.69;;;21.35;57.79
11692;BME280;33659;42.672;23.354;2023-07-09T04:57:04;69266.59;;;21.28;57.70
11692;BME280;33659;42.672;23.354;2023-07-09T04:59:31;69269.25;;;21.28;57.07
11692;BME280;33659;42.672;23.354;2023-07-09T05:02:00;69269.31;;;21.31;56.46
11692;BME280;33659;42.672;23.354;2023-07-09T05:04:26;69278.06;;;21.39;56.30
11692;BME280;33659;42.672;23.354;2023-07-09T05:06:53;69287.78;;;21.46;55.76
11692;BME280;33659;42.672;23.354;2023-07-09T05:09:20;69294.41;;;21.54;55.93
11692;BME280;33659;42.672;23.354;2023-07-09T05:11:49;69305.34;;;21.65;55.49
11692;BME280;33659;42.672;23.354;2023-07-09T05:14:16;69310.78;;;21.70;55.59
11692;BME280;33659;42.672;23.354;2023-07-09T05:16:43;69316.25;;;21.75;55.70
11692;BME280;33659;42.672;23.354;2023-07-09T05:19:12;69324.41;;;21.82;55.82
11692;BME280;33659;42.672;23.354;2023-07-09T05:21:39;69332.50;;;21.87;55.64
11692;BME280;33659;42.672;23.354;2023-07-09T05:24:06;69266.78;;;21.95;55.46
11692;BME280;33659;42.672;23.354;2023-07-09T05:26:33;69347.88;;;22.04;55.13
11692;BME280;33659;42.672;23.354;2023-07-09T05:29:02;69279.25;;;22.04;54.42
11692;BME280;33659;42.672;23.354;2023-07-09T05:31:29;69354.88;;;22.08;54.61
11692;BME280;33659;42.672;23.354;2023-07-09T05:33:56;69346.34;;;22.05;54.76
11692;BME280;33659;42.672;23.354;2023-07-09T05:36:25;69354.44;;;22.10;54.72
11692;BME280;33659;42.672;23.354;2023-07-09T05:38:52;69291.34;;;22.18;54.45
11692;BME280;33659;42.672;23.354;2023-07-09T05:41:19;69349.53;;;22.06;53.13
11692;BME280;33659;42.672;23.354;2023-07-09T05:43:45;69267.25;;;21.93;53.58
11692;BME280;33659;42.672;23.354;2023-07-09T05:46:13;69262.44;;;21.91;53.70
11692;BME280;33659;42.672;23.354;2023-07-09T05:48:40;69261.78;;;21.88;54.64
11692;BME280;33659;42.672;23.354;2023-07-09T05:51:07;69323.31;;;21.81;54.38
11692;BME280;33659;42.672;23.354;2023-07-09T05:53:35;69343.50;;;22.00;53.30
11692;BME280;33659;42.672;23.354;2023-07-09T05:56:02;69268.44;;;21.97;53.11
11692;BME280;33659;42.672;23.354;2023-07-09T05:58:28;69267.78;;;21.94;53.25
11692;BME280;33659;42.672;23.354;2023-07-09T06:00:55;69333.69;;;21.91;53.90
11692;BME280;33659;42.672;23.354;2023-07-09T06:03:26;69335.34;;;21.93;53.76
11692;BME280;33659;42.672;23.354;2023-07-09T06:05:53;69270.06;;;21.98;53.50
11692;BME280;33659;42.672;23.354;2023-07-09T06:08:21;69260.69;;;21.87;53.38
11692;BME280;33659;42.672;23.354;2023-07-09T06:10:53;69339.72;;;21.97;53.81
11692;BME280;33659;42.672;23.354;2023-07-09T06:13:21;69261.41;;;21.93;53.45
11692;BME280;33659;42.672;23.354;2023-07-09T06:15:47;69328.25;;;21.86;53.46
11692;BME280;33659;42.672;23.354;2023-07-09T06:18:14;69320.59;;;21.79;54.04
11692;BME280;33659;42.672;23.354;2023-07-09T06:20:45;69315.69;;;21.74;54.73
11692;BME280;33659;42.672;23.354;2023-07-09T06:23:12;69295.50;;;21.55;54.83
11692;BME280;33659;42.672;23.354;2023-07-09T06:25:38;69325.53;;;21.83;55.19
11692;BME280;33659;42.672;23.354;2023-07-09T06:28:07;69316.25;;;21.75;55.01
11692;BME280;33659;42.672;23.354;2023-07-09T06:30:33;69326.50;;;21.82;54.89
11692;BME280;33659;42.672;23.354;2023-07-09T06:33:00;69326.06;;;21.84;55.76
11692;BME280;33659;42.672;23.354;2023-07-09T06:35:27;69273.78;;;21.99;54.47
11692;BME280;33659;42.672;23.354;2023-07-09T06:37:53;69275.50;;;22.03;54.94
11692;BME280;33659;42.672;23.354;2023-07-09T06:40:20;69361.00;;;22.16;55.00
11692;BME280;33659;42.672;23.354;2023-07-09T06:42:48;69367.38;;;22.17;54.03
11692;BME280;33659;42.672;23.354;2023-07-09T06:45:16;69293.59;;;22.23;53.65
11692;BME280;33659;42.672;23.354;2023-07-09T06:47:43;69376.81;;;22.31;53.68
11692;BME280;33659;42.672;23.354;2023-07-09T06:50:10;69383.91;;;22.38;54.03
11692;BME280;33659;42.672;23.354;2023-07-09T06:52:37;69310.97;;;22.36;52.29
11692;BME280;33659;42.672;23.354;2023-07-09T06:55:04;69376.28;;;22.31;51.77
11692;BME280;33659;42.672;23.354;2023-07-09T06:57:31;69367.00;;;22.22;51.74
11692;BME280;33659;42.672;23.354;2023-07-09T06:59:58;69358.19;;;22.11;52.09
11692;BME280;33659;42.672;23.354;2023-07-09T07:02:26;69347.88;;;22.04;52.58
11692;BME280;33659;42.672;23.354;2023-07-09T07:04:53;69356.63;;;22.12;52.18
11692;BME280;33659;42.672;23.354;2023-07-09T07:07:21;69292.34;;;22.16;50.88
11692;BME280;33659;42.672;23.354;2023-07-09T07:09:48;69363.19;;;22.19;51.88
11692;BME280;33659;42.672;23.354;2023-07-09T07:12:22;69371.91;;;22.27;51.17
11692;BME280;33659;42.672;23.354;2023-07-09T07:14:49;69307.78;;;22.36;51.30
11692;BME280;33659;42.672;23.354;2023-07-09T07:17:16;69390.38;;;22.41;51.33
11692;BME280;33659;42.672;23.354;2023-07-09T07:19:45;69388.84;;;22.42;50.70
11692;BME280;33659;42.672;23.354;2023-07-09T07:22:12;69313.06;;;22.36;50.29
11692;BME280;33659;42.672;23.354;2023-07-09T07:24:39;69380.09;;;22.34;51.20
11692;BME280;33659;42.672;23.354;2023-07-09T07:27:05;69384.47;;;22.38;50.93
11692;BME280;33659;42.672;23.354;2023-07-09T07:29:32;69395.94;;;22.49;50.83
11692;BME280;33659;42.672;23.354;2023-07-09T07:31:59;69340.41;;;22.64;50.44
11692;BME280;33659;42.672;23.354;2023-07-09T07:34:26;69415.03;;;22.67;50.32
11692;BME280;33659;42.672;23.354;2023-07-09T07:36:54;69337.53;;;22.74;50.05
11692;BME280;33659;42.672;23.354;2023-07-09T07:39:21;69418.66;;;22.65;49.54
11692;BME280;33659;42.672;23.354;2023-07-09T07:41:48;69420.41;;;22.69;49.79
11692;BME280;33659;42.672;23.354;2023-07-09T07:44:16;69339.84;;;22.63;49.88
11692;BME280;33659;42.672;23.354;2023-07-09T07:46:43;69341.94;;;22.63;50.69
11692;BME280;33659;42.672;23.354;2023-07-09T07:49:10;69420.03;;;22.74;49.95
11692;BME280;33659;42.672;23.354;2023-07-09T07:51:37;69422.66;;;22.74;49.46
11692;BME280;33659;42.672;23.354;2023-07-09T07:54:05;69443.88;;;22.91;49.75
11692;BME280;33659;42.672;23.354;2023-07-09T07:56:34;69378.03;;;22.99;49.84
11692;BME280;33659;42.672;23.354;2023-07-09T07:59:01;69458.63;;;23.05;48.96
11692;BME280;33659;42.672;23.354;2023-07-09T08:01:27;69461.91;;;23.08;49.85
11692;BME280;33659;42.672;23.354;2023-07-09T08:03:54;69468.53;;;23.17;49.79
11692;BME280;33659;42.672;23.354;2023-07-09T08:06:21;69477.19;;;23.22;49.04
11692;BME280;33659;42.672;23.354;2023-07-09T08:08:48;69481.75;;;23.32;50.00
11692;BME280;33659;42.672;23.354;2023-07-09T08:11:16;69496.94;;;23.43;49.09
11692;BME280;33659;42.672;23.354;2023-07-09T08:13:43;69430.88;;;23.46;48.94
11692;BME280;33659;42.672;23.354;2023-07-09T08:16:10;69501.78;;;23.45;48.61
11692;BME280;33659;42.672;23.354;2023-07-09T08:18:38;69430.88;;;23.46;49.20
11692;BME280;33659;42.672;23.354;2023-07-09T08:21:05;69425.41;;;23.41;47.89
11692;BME280;33659;42.672;23.354;2023-07-09T08:23:31;69473.44;;;23.21;48.83
11692;BME280;33659;42.672;23.354;2023-07-09T08:25:59;69421.66;;;23.40;48.79
11692;BME280;33659;42.672;23.354;2023-07-09T08:28:29;69413.19;;;23.39;49.37
11692;BME280;33659;42.672;23.354;2023-07-09T08:30:56;69420.03;;;23.38;47.11
11692;BME280;33659;42.672;23.354;2023-07-09T08:33:24;69491.38;;;23.36;47.84
11692;BME280;33659;42.672;23.354;2023-07-09T08:35:52;69411.84;;;23.31;49.19
11692;BME280;33659;42.672;23.354;2023-07-09T08:38:19;69475.63;;;23.23;48.27
11692;BME280;33659;42.672;23.354;2023-07-09T08:40:56;69483.19;;;23.28;49.13
11692;BME280;33659;42.672;23.354;2023-07-09T08:43:35;69486.00;;;23.33;49.37
11692;BME280;33659;42.672;23.354;2023-07-09T08:46:07;69484.38;;;23.32;50.10
11692;BME280;33659;42.672;23.354;2023-07-09T08:48:38;69497.94;;;23.42;49.85
11692;BME280;33659;42.672;23.354;2023-07-09T08:51:13;69426.03;;;23.44;49.72
11692;BME280;33659;42.672;23.354;2023-07-09T08:53:45;69429.84;;;23.47;50.33
11692;BME280;33659;42.672;23.354;2023-07-09T08:56:15;69506.22;;;23.52;49.22
11692;BME280;33659;42.672;23.354;2023-07-09T08:58:45;69432.56;;;23.50;49.99
11692;BME280;33659;42.672;23.354;2023-07-09T09:01:18;69445.03;;;23.59;49.79
11692;BME280;33659;42.672;23.354;2023-07-09T09:03:48;69435.84;;;23.53;50.11
11692;BME280;33659;42.672;23.354;2023-07-09T09:06:18;69516.50;;;23.59;50.09
11692;BME280;33659;42.672;23.354;2023-07-09T09:08:53;69442.41;;;23.59;50.20
11692;BME280;33659;42.672;23.354;2023-07-09T09:11:25;69519.34;;;23.64;50.09
11692;BME280;33659;42.672;23.354;2023-07-09T09:14:00;69451.63;;;23.65;50.00
11692;BME280;33659;42.672;23.354;2023-07-09T09:16:30;69453.78;;;23.67;49.43
11692;BME280;33659;42.672;23.354;2023-07-09T09:18:59;69453.41;;;23.72;49.41
11692;BME280;33659;42.672;23.354;2023-07-09T09:21:31;69529.81;;;23.76;49.50
11692;BME280;33659;42.672;23.354;2023-07-09T09:24:12;69525.34;;;23.70;48.92
11692;BME280;33659;42.672;23.354;2023-07-09T09:26:42;69531.19;;;23.70;50.00
11692;BME280;33659;42.672;23.354;2023-07-09T09:29:13;69454.44;;;23.70;49.69
11692;BME280;33659;42.672;23.354;2023-07-09T09:31:40;69535.19;;;23.79;48.87
11692;BME280;33659;42.672;23.354;2023-07-09T09:34:17;69479.97;;;23.92;49.72
11692;BME280;33659;42.672;23.354;2023-07-09T09:36:44;69479.50;;;23.94;48.64
11692;BME280;33659;42.672;23.354;2023-07-09T09:39:11;69482.16;;;23.94;48.36
11692;BME280;33659;42.672;23.354;2023-07-09T09:41:38;69477.41;;;23.94;48.08
11692;BME280;33659;42.672;23.354;2023-07-09T09:44:05;69478.97;;;23.93;47.92
11692;BME280;33659;42.672;23.354;2023-07-09T09:46:44;69561.41;;;24.03;47.42
11692;BME280;33659;42.672;23.354;2023-07-09T09:49:11;69502.91;;;24.13;47.51
11692;BME280;33659;42.672;23.354;2023-07-09T09:51:40;69570.69;;;24.12;47.97
11692;BME280;33659;42.672;23.354;2023-07-09T09:54:15;69574.44;;;24.13;48.05
11692;BME280;33659;42.672;23.354;2023-07-09T09:56:43;69564.78;;;24.09;47.83
11692;BME280;33659;42.672;23.354;2023-07-09T09:59:17;69567.88;;;24.07;47.90
11692;BME280;33659;42.672;23.354;2023-07-09T10:01:45;69560.22;;;24.00;48.01
11692;BME280;33659;42.672;23.354;2023-07-09T10:04:18;69590.72;;;24.26;47.38
11692;BME280;33659;42.672;23.354;2023-07-09T10:06:47;69520.91;;;24.30;47.79
11692;BME280;33659;42.672;23.354;2023-07-09T10:09:20;69592.53;;;24.32;47.95
11692;BME280;33659;42.672;23.354;2023-07-09T10:11:57;69602.31;;;24.39;47.38
11692;BME280;33659;42.672;23.354;2023-07-09T10:14:38;69543.84;;;24.51;47.56
11692;BME280;33659;42.672;23.354;2023-07-09T10:17:17;69543.31;;;24.51;46.25
11692;BME280;33659;42.672;23.354;2023-07-09T10:19:49;69541.75;;;24.52;46.65
11692;BME280;33659;42.672;23.354;2023-07-09T10:22:34;69550.94;;;24.58;46.38
11692;BME280;33659;42.672;23.354;2023-07-09T10:25:13;69625.34;;;24.63;46.42
11692;BME280;33659;42.672;23.354;2023-07-09T10:27:54;69640.47;;;24.72;46.16
11692;BME280;33659;42.672;23.354;2023-07-09T10:30:38;69570.06;;;24.76;45.60
11692;BME280;33659;42.672;23.354;2023-07-09T10:33:11;69576.63;;;24.82;44.78
11692;BME280;33659;42.672;23.354;2023-07-09T10:35:46;69640.03;;;24.74;45.06
11692;BME280;33659;42.672;23.354;2023-07-09T10:38:34;69561.88;;;24.68;44.66
11692;BME280;33659;42.672;23.354;2023-07-09T10:41:09;69620.97;;;24.59;44.57
11692;BME280;33659;42.672;23.354;2023-07-09T10:43:45;69544.94;;;24.52;44.65
11692;BME280;33659;42.672;23.354;2023-07-09T10:46:16;69551.50;;;24.58;43.55
11692;BME280;33659;42.672;23.354;2023-07-09T10:48:46;69545.88;;;24.66;44.39
11692;BME280;33659;42.672;23.354;2023-07-09T10:51:23;69559.84;;;24.71;43.60
11692;BME280;33659;42.672;23.354;2023-07-09T10:53:56;69647.13;;;24.81;43.50
11692;BME280;33659;42.672;23.354;2023-07-09T10:56:26;69638.38;;;24.73;43.21
11692;BME280;33659;42.672;23.354;2023-07-09T10:58:57;69623.16;;;24.61;42.75
11692;BME280;33659;42.672;23.354;2023-07-09T11:01:30;69631.91;;;24.69;41.92
11692;BME280;33659;42.672;23.354;2023-07-09T11:04:03;69629.63;;;24.65;42.67
11692;BME280;33659;42.672;23.354;2023-07-09T11:06:36;69568.50;;;24.77;43.34
11692;BME280;33659;42.672;23.354;2023-07-09T11:09:07;69653.16;;;24.87;43.02
11692;BME280;33659;42.672;23.354;2023-07-09T11:11:40;69600.09;;;25.04;42.13
11692;BME280;33659;42.672;23.354;2023-07-09T11:14:26;69595.19;;;24.99;41.01
11692;BME280;33659;42.672;23.354;2023-07-09T11:16:58;69593.00;;;24.97;41.09
11692;BME280;33659;42.672;23.354;2023-07-09T11:19:28;69597.91;;;25.02;40.54
11692;BME280;33659;42.672;23.354;2023-07-09T11:22:01;69673.94;;;25.06;40.78
11692;BME280;33659;42.672;23.354;2023-07-09T11:24:32;69611.59;;;25.15;39.48
11692;BME280;33659;42.672;23.354;2023-07-09T11:27:00;69593.53;;;24.98;39.89
11692;BME280;33659;42.672;23.354;2023-07-09T11:29:27;69680.94;;;25.10;40.61
11692;BME280;33659;42.672;23.354;2023-07-09T11:31:54;69618.84;;;25.26;41.08
11692;BME280;33659;42.672;23.354;2023-07-09T11:34:28;69699.06;;;25.29;41.10
11692;BME280;33659;42.672;23.354;2023-07-09T11:36:58;69699.72;;;25.32;40.48
11692;BME280;33659;42.672;23.354;2023-07-09T11:39:28;69642.41;;;25.51;40.61
11692;BME280;33659;42.672;23.354;2023-07-09T11:41:56;69732.50;;;25.63;40.87
11692;BME280;33659;42.672;23.354;2023-07-09T11:44:24;69670.00;;;25.69;40.54
11692;BME280;33659;42.672;23.354;2023-07-09T11:47:17;69672.22;;;25.71;40.45
11692;BME280;33659;42.672;23.354;2023-07-09T11:49:57;69742.84;;;25.70;41.40
11692;BME280;33659;42.672;23.354;2023-07-09T11:52:31;69669.56;;;25.71;41.15
11692;BME280;33659;42.672;23.354;2023-07-09T11:55:02;69671.75;;;25.73;41.39
11692;BME280;33659;42.672;23.354;2023-07-09T11:57:39;69691.34;;;25.89;41.55
11692;BME280;33659;42.672;23.354;2023-07-09T12:00:08;69690.78;;;25.88;40.91
11692;BME280;33659;42.672;23.354;2023-07-09T12:02:35;69697.66;;;26.05;40.92
11692;BME280;33659;42.672;23.354;2023-07-09T12:05:04;69796.97;;;26.20;41.79
11692;BME280;33659;42.672;23.354;2023-07-09T12:07:31;69804.56;;;26.25;40.49
11692;BME280;33659;42.672;23.354;2023-07-09T12:09:58;69803.47;;;26.24;41.11
11692;BME280;33659;42.672;23.354;2023-07-09T12:12:26;69741.63;;;26.36;42.15
11692;BME280;33659;42.672;23.354;2023-07-09T12:14:53;69759.19;;;26.55;40.19
11692;BME280;33659;42.672;23.354;2023-07-09T12:17:23;69855.00;;;26.75;39.55
11692;BME280;33659;42.672;23.354;2023-07-09T12:19:54;69778.41;;;26.75;39.22
11692;BME280;33659;42.672;23.354;2023-07-09T12:22:22;69846.25;;;26.66;40.92
11692;BME280;33659;42.672;23.354;2023-07-09T12:24:50;69788.06;;;26.79;40.31
11692;BME280;33659;42.672;23.354;2023-07-09T12:27:19;69869.16;;;26.85;40.07
11692;BME280;33659;42.672;23.354;2023-07-09T12:29:46;69801.19;;;26.91;38.49
11692;BME280;33659;42.672;23.354;2023-07-09T12:32:15;69802.84;;;26.93;40.83
11692;BME280;33659;42.672;23.354;2023-07-09T12:34:42;69797.38;;;27.05;40.86
11692;BME280;33659;42.672;23.354;2023-07-09T12:37:12;69830.75;;;27.19;40.04
11692;BME280;33659;42.672;23.354;2023-07-09T12:39:41;69835.06;;;27.40;39.71
11692;BME280;33659;42.672;23.354;2023-07-09T12:42:14;69866.84;;;27.52;39.62
11692;BME280;33659;42.672;23.354;2023-07-09T12:44:42;69874.50;;;27.60;39.08
11692;BME280;33659;42.672;23.354;2023-07-09T12:47:13;69892.03;;;27.76;38.39
11692;BME280;33659;42.672;23.354;2023-07-09T12:49:42;69890.03;;;27.82;38.08
11692;BME280;33659;42.672;23.354;2023-07-09T12:52:14;69894.75;;;27.78;38.67
11692;BME280;33659;42.672;23.354;2023-07-09T12:54:51;69901.31;;;27.85;38.70
11692;BME280;33659;42.672;23.354;2023-07-09T12:57:19;69903.97;;;27.85;38.69
11692;BME280;33659;42.672;23.354;2023-07-09T12:59:46;69900.22;;;27.84;38.24
11692;BME280;33659;42.672;23.354;2023-07-09T13:02:16;69887.09;;;27.71;37.89
11692;BME280;33659;42.672;23.354;2023-07-09T13:04:43;69890.38;;;27.74;38.01
11692;BME280;33659;42.672;23.354;2023-07-09T13:07:29;69895.31;;;27.79;38.56
11692;BME280;33659;42.672;23.354;2023-07-09T13:10:05;69883.81;;;27.68;37.78